Time;durP1;ratioP1;P1;durP2;ratioP2;P2;SDS_P1;SDS_P2;PMS_P1;PMS_P2;Temp;Humidity;BMP_temperature;BMP_pressure;BME280_temperature;BME280_humidity;BME280_pressure;Samples;Min_cycle;Max_cycle;Signal;HPM_P1;HPM_P2
2023/12/30 00:01:05;;;;;;;10.98;2.95;;;;;;;9.73;72.57;100886.75;5077571;28;20020;-66
2023/12/30 00:03:31;;;;;;;8.98;2.72;;;;;;;9.74;72.44;100878.19;5090881;28;20450;-66
2023/12/30 00:05:56;;;;;;;15.18;2.70;;;;;;;9.76;72.50;100886.25;5090129;28;20079;-66
2023/12/30 00:08:21;;;;;;;13.15;3.40;;;;;;;9.76;72.60;100886.25;5091804;28;20035;-67
2023/12/30 00:10:46;;;;;;;12.27;3.00;;;;;;;9.70;72.28;100898.31;5090590;28;20391;-66
2023/12/30 00:13:12;;;;;;;12.25;2.95;;;;;;;9.71;72.17;100894.50;5090969;28;20110;-66
2023/12/30 00:15:37;;;;;;;10.38;2.45;;;;;;;9.71;72.24;100897.25;5091731;28;20441;-66
2023/12/30 00:18:03;;;;;;;10.75;2.53;;;;;;;9.67;72.15;100894.13;5084071;28;20098;-67
2023/12/30 00:20:28;;;;;;;9.77;2.70;;;;;;;9.67;72.35;100899.69;5095025;28;20030;-67
2023/12/30 00:22:57;;;;;;;10.57;2.35;;;;;;;9.63;72.01;100903.16;5086203;28;20025;-66
2023/12/30 00:25:25;;;;;;;12.93;2.47;;;;;;;9.60;72.03;100898.97;5087168;28;20024;-67
2023/12/30 00:27:51;;;;;;;8.13;2.40;;;;;;;9.50;71.60;100899.59;5090900;28;20119;-66
2023/12/30 00:30:17;;;;;;;11.13;2.97;;;;;;;9.52;72.32;100911.28;5091424;28;20361;-66
2023/12/30 00:32:42;;;;;;;9.25;2.47;;;;;;;9.51;72.31;100911.50;5088487;28;20085;-66
2023/12/30 00:35:07;;;;;;;9.45;2.95;;;;;;;9.55;72.01;100919.13;5090451;28;20024;-67
2023/12/30 00:37:33;;;;;;;11.23;2.28;;;;;;;9.52;72.27;100919.59;5091591;28;20028;-67
2023/12/30 00:39:58;;;;;;;11.38;2.58;;;;;;;9.57;72.14;100922.47;5091323;28;20486;-66
2023/12/30 00:42:24;;;;;;;11.02;2.53;;;;;;;9.54;72.12;100930.41;5081288;28;20054;-67
2023/12/30 00:44:49;;;;;;;9.15;2.45;;;;;;;9.58;72.19;100935.22;5093124;28;20531;-67
2023/12/30 00:47:17;;;;;;;12.70;2.67;;;;;;;9.55;72.18;100929.34;5085279;28;20117;-64
2023/12/30 00:49:45;;;;;;;7.10;2.33;;;;;;;9.55;72.09;100943.22;5082289;27;20066;-66
2023/12/30 00:52:11;;;;;;;8.77;1.85;;;;;;;9.52;72.28;100930.69;5084454;28;20024;-66
2023/12/30 00:54:36;;;;;;;12.35;2.80;;;;;;;9.55;72.06;100935.75;5090224;28;20058;-66
2023/12/30 00:57:02;;;;;;;9.18;2.40;;;;;;;9.53;72.21;100935.13;5094327;28;20032;-68
2023/12/30 00:59:27;;;;;;;8.90;2.50;;;;;;;9.52;72.15;100941.75;5086154;28;20025;-66
2023/12/30 01:01:52;;;;;;;12.18;2.55;;;;;;;9.49;72.18;100939.47;5083878;28;20077;-66
2023/12/30 01:04:18;;;;;;;12.57;2.83;;;;;;;9.50;72.38;100948.63;5090342;28;20024;-66
2023/12/30 01:06:43;;;;;;;11.75;2.10;;;;;;;9.52;71.82;100958.38;5090036;28;20139;-66
2023/12/30 01:09:08;;;;;;;9.40;2.88;;;;;;;9.53;71.88;100951.75;5090376;28;20028;-66
2023/12/30 01:11:34;;;;;;;11.93;2.67;;;;;;;9.55;72.18;100945.97;5091088;28;20494;-67
2023/12/30 01:13:59;;;;;;;10.32;3.05;;;;;;;9.55;72.13;100957.06;5090186;28;20024;-66
2023/12/30 01:16:24;;;;;;;12.75;2.75;;;;;;;9.54;71.82;100952.59;5076068;28;20020;-66
2023/12/30 01:18:50;;;;;;;14.52;2.90;;;;;;;9.55;72.03;100963.44;5083280;28;20603;-66
2023/12/30 01:21:15;;;;;;;9.45;2.50;;;;;;;9.56;72.63;100959.59;5091884;28;20040;-66
2023/12/30 01:23:40;;;;;;;9.57;2.60;;;;;;;9.57;72.27;100968.72;5091280;28;20106;-66
2023/12/30 01:26:06;;;;;;;10.77;2.60;;;;;;;9.58;72.39;100967.63;5095939;28;20062;-66
2023/12/30 01:28:31;;;;;;;7.95;2.13;;;;;;;9.58;72.39;100973.19;5086136;28;20044;-66
2023/12/30 01:30:56;;;;;;;10.48;2.28;;;;;;;9.57;72.17;100977.03;5092228;28;20032;-66
2023/12/30 01:33:22;;;;;;;10.35;2.60;;;;;;;9.56;72.56;100987.28;5086431;28;20024;-66
2023/12/30 01:35:48;;;;;;;9.60;2.65;;;;;;;9.56;72.72;100987.28;5094445;28;20487;-66
2023/12/30 01:38:13;;;;;;;12.50;2.80;;;;;;;9.54;73.34;100992.22;5093467;28;20028;-67
2023/12/30 01:40:38;;;;;;;11.70;2.90;;;;;;;9.57;72.71;100985.34;5094164;28;20084;-66
2023/12/30 01:43:05;;;;;;;15.75;2.92;;;;;;;9.59;72.79;100991.53;5093813;28;20031;-67
2023/12/30 01:45:31;;;;;;;10.88;2.72;;;;;;;9.55;72.97;100985.63;5087588;28;20055;-67
2023/12/30 01:47:56;;;;;;;9.13;2.60;;;;;;;9.54;73.21;100983.91;5092775;28;20395;-66
2023/12/30 01:50:22;;;;;;;11.38;2.80;;;;;;;9.53;72.77;100986.94;5093345;28;20032;-66
2023/12/30 01:52:48;;;;;;;12.73;3.53;;;;;;;9.54;73.18;100988.63;5093306;28;20027;-67
2023/12/30 01:55:14;;;;;;;8.90;3.25;;;;;;;9.56;72.92;100992.84;5093906;28;20036;-66
2023/12/30 01:57:40;;;;;;;11.93;2.85;;;;;;;9.55;73.10;100993.94;5093859;28;20066;-66
2023/12/30 02:00:06;;;;;;;10.73;2.67;;;;;;;9.53;72.99;100989.72;5081032;28;20643;-66
2023/12/30 02:02:31;;;;;;;15.10;3.15;;;;;;;9.53;72.70;100998.03;5093392;28;20032;-66
2023/12/30 02:04:57;;;;;;;13.13;3.40;;;;;;;9.50;72.99;101007.66;5095111;28;20040;-66
2023/12/30 02:07:24;;;;;;;11.75;2.85;;;;;;;9.50;72.98;101007.66;5112613;28;20033;-66
2023/12/30 02:09:52;;;;;;;7.85;2.75;;;;;;;9.47;72.76;100999.84;5093349;28;20031;-66
2023/12/30 02:12:17;;;;;;;8.00;2.30;;;;;;;9.48;72.77;101007.06;5092662;28;20028;-66
2023/12/30 02:14:42;;;;;;;10.93;2.85;;;;;;;9.50;72.72;101004.03;5093280;28;20105;-67
2023/12/30 02:17:11;;;;;;;10.50;2.35;;;;;;;9.48;72.28;101000.69;5088075;28;20430;-66
2023/12/30 02:19:36;;;;;;;8.48;2.58;;;;;;;9.50;72.63;101002.09;5084764;28;20114;-67
2023/12/30 02:22:01;;;;;;;11.65;2.80;;;;;;;9.49;72.79;101014.28;5093631;27;20492;-66
2023/12/30 02:24:27;;;;;;;8.88;2.90;;;;;;;9.48;72.81;101007.06;5101143;28;20764;-67
2023/12/30 02:26:54;;;;;;;9.98;2.60;;;;;;;9.48;72.98;101007.06;5088362;28;20039;-67
2023/12/30 02:29:19;;;;;;;11.25;4.47;;;;;;;9.49;73.02;101019.81;5093191;28;20035;-66
2023/12/30 02:31:47;;;;;;;13.30;2.72;;;;;;;9.46;73.27;101030.53;5092913;28;20027;-66
2023/12/30 02:34:14;;;;;;;8.77;2.60;;;;;;;9.35;73.30;101021.16;5090373;28;20024;-66
2023/12/30 02:36:39;;;;;;;6.03;2.50;;;;;;;9.35;73.61;101026.69;5093155;28;20501;-67
2023/12/30 02:39:04;;;;;;;6.05;2.42;;;;;;;9.27;72.78;101033.41;5092687;28;20035;-66
2023/12/30 02:41:30;;;;;;;4.80;2.40;;;;;;;9.32;73.18;101030.81;5092278;28;20032;-67
2023/12/30 02:44:04;;;;;;;7.13;3.13;;;;;;;9.29;72.87;101036.81;5084605;28;20020;-67
2023/12/30 02:46:29;;;;;;;11.57;3.22;;;;;;;9.31;73.64;101022.72;5087949;28;20028;-66
2023/12/30 02:48:56;;;;;;;8.48;2.60;;;;;;;9.35;74.04;101040.53;5093620;28;20030;-67
2023/12/30 02:51:21;;;;;;;8.85;3.47;;;;;;;9.34;74.60;101038.84;5088443;28;20114;-66
2023/12/30 02:53:47;;;;;;;15.18;4.07;;;;;;;9.36;74.57;101033.94;5092374;28;20115;-66
2023/12/30 02:56:26;;;;;;;14.93;4.32;;;;;;;9.38;75.12;101045.59;5091889;28;20117;-66
2023/12/30 02:58:57;;;;;;;12.50;5.20;;;;;;;9.37;75.48;101041.16;5092327;28;20114;-66
2023/12/30 03:01:27;;;;;;;18.52;5.32;;;;;;;9.39;75.46;101047.28;5092458;28;20028;-66
2023/12/30 03:03:55;;;;;;;14.13;3.92;;;;;;;9.38;75.73;101042.00;5085097;28;20051;-66
2023/12/30 03:06:21;;;;;;;12.95;4.00;;;;;;;9.37;75.79;101054.16;5088655;28;20128;-66
2023/12/30 03:08:49;;;;;;;15.05;3.63;;;;;;;9.33;75.75;101053.78;5091310;28;20862;-66
2023/12/30 03:11:15;;;;;;;13.60;3.47;;;;;;;9.36;75.84;101053.31;5092209;28;20101;-66
2023/12/30 03:13:41;;;;;;;14.90;3.15;;;;;;;9.31;75.25;101050.41;5092261;28;20474;-66
2023/12/30 03:16:06;;;;;;;13.40;2.97;;;;;;;9.30;76.18;101060.66;5091620;28;20379;-66
2023/12/30 03:18:32;;;;;;;9.85;2.80;;;;;;;9.29;75.77;101058.13;5095407;28;20031;-66
2023/12/30 03:20:57;;;;;;;12.18;3.17;;;;;;;9.29;75.42;101049.81;5099158;28;20387;-66
2023/12/30 03:23:23;;;;;;;15.07;2.65;;;;;;;9.26;75.53;101056.66;5088079;28;20020;-66
2023/12/30 03:25:49;;;;;;;15.55;3.47;;;;;;;9.25;75.53;101060.53;5093438;28;20042;-66
2023/12/30 03:28:14;;;;;;;15.77;3.10;;;;;;;9.26;75.54;101055.84;5091254;28;20036;-66
2023/12/30 03:30:40;;;;;;;12.88;2.72;;;;;;;9.27;75.67;101052.81;5091114;28;20154;-66
2023/12/30 03:33:14;;;;;;;14.98;2.60;;;;;;;9.23;75.59;101048.00;5093140;28;20395;-66
2023/12/30 03:35:39;;;;;;;10.00;2.92;;;;;;;9.28;75.61;101050.91;5095736;28;20036;-66
2023/12/30 03:38:04;;;;;;;12.52;2.65;;;;;;;9.24;75.33;101045.00;5090335;28;20032;-66
2023/12/30 03:40:33;;;;;;;13.60;2.63;;;;;;;9.21;75.44;101044.63;5091735;28;20047;-66
2023/12/30 03:42:58;;;;;;;13.25;3.00;;;;;;;9.23;75.41;101054.38;5084513;28;20489;-66
2023/12/30 03:45:23;;;;;;;15.52;2.67;;;;;;;9.22;75.25;101057.41;5086997;28;20060;-66
2023/12/30 03:47:49;;;;;;;11.60;3.03;;;;;;;9.16;75.51;101053.66;5089678;28;20051;-66
2023/12/30 03:50:14;;;;;;;11.98;2.75;;;;;;;9.19;75.13;101064.25;5091720;28;20020;-67
2023/12/30 03:52:39;;;;;;;16.67;3.20;;;;;;;9.22;75.09;101061.00;5084385;28;20035;-66
2023/12/30 03:55:05;;;;;;;14.77;2.47;;;;;;;9.21;74.91;101061.25;5086617;28;20647;-66
2023/12/30 03:57:30;;;;;;;13.43;2.70;;;;;;;9.16;75.16;101063.91;5088916;28;20028;-66
2023/12/30 03:59:55;;;;;;;14.45;2.90;;;;;;;9.14;75.22;101058.59;5090979;28;20039;-66
2023/12/30 04:02:21;;;;;;;12.90;2.70;;;;;;;9.13;75.27;101056.91;5091213;28;20115;-66
2023/12/30 04:04:49;;;;;;;11.95;2.45;;;;;;;9.12;75.77;101057.13;5090597;28;20024;-66
2023/12/30 04:07:15;;;;;;;13.07;2.65;;;;;;;9.17;74.97;101057.28;5099945;28;20076;-66
2023/12/30 04:09:40;;;;;;;11.90;2.50;;;;;;;9.17;75.31;101055.34;5091351;28;20110;-66
2023/12/30 04:12:06;;;;;;;11.68;2.58;;;;;;;9.10;74.78;101049.91;5079838;28;20436;-67
2023/12/30 04:14:31;;;;;;;14.50;3.08;;;;;;;9.04;75.25;101059.19;5093001;28;20044;-66
2023/12/30 04:16:56;;;;;;;16.83;3.13;;;;;;;9.05;75.42;101058.09;5091195;28;20031;-66
2023/12/30 04:19:23;;;;;;;9.73;2.20;;;;;;;9.03;74.86;101060.25;5090479;28;20597;-66
2023/12/30 04:21:48;;;;;;;14.02;3.03;;;;;;;9.06;74.90;101054.25;5089714;28;20059;-66
2023/12/30 04:24:14;;;;;;;12.95;2.60;;;;;;;9.07;75.04;101060.63;5090727;28;20116;-66
2023/12/30 04:26:43;;;;;;;11.93;2.72;;;;;;;9.03;74.72;101049.19;5083577;28;20028;-66
2023/12/30 04:29:09;;;;;;;14.30;2.95;;;;;;;9.03;75.10;101060.25;5094710;28;20371;-66
2023/12/30 04:31:34;;;;;;;14.60;2.95;;;;;;;9.03;74.75;101057.47;5105131;28;20471;-66
2023/12/30 04:33:59;;;;;;;12.18;2.80;;;;;;;9.02;74.94;101064.09;5089694;28;20028;-66
2023/12/30 04:36:25;;;;;;;14.10;3.03;;;;;;;9.01;74.88;101062.44;5089734;28;20092;-66
2023/12/30 04:38:50;;;;;;;10.55;2.55;;;;;;;8.99;75.24;101064.56;5090410;28;20106;-66
2023/12/30 04:41:15;;;;;;;13.32;2.75;;;;;;;9.00;75.47;101060.75;5090094;28;20475;-66
2023/12/30 04:43:41;;;;;;;14.65;3.13;;;;;;;8.97;75.41;101058.44;5090839;28;20028;-66
2023/12/30 04:46:06;;;;;;;11.07;2.63;;;;;;;8.97;75.22;101066.75;5090947;28;20020;-66
2023/12/30 04:48:32;;;;;;;8.52;2.28;;;;;;;8.97;75.07;101057.59;5090079;28;20040;-66
2023/12/30 04:50:57;;;;;;;16.33;2.83;;;;;;;9.00;75.56;101057.09;5079978;28;20024;-66
2023/12/30 04:53:23;;;;;;;12.73;2.55;;;;;;;8.99;75.19;101063.75;5085895;28;20105;-66
2023/12/30 04:55:48;;;;;;;11.93;2.45;;;;;;;8.97;75.83;101066.75;5091450;28;20517;-66
2023/12/30 04:58:14;;;;;;;16.35;2.92;;;;;;;8.98;75.55;101075.91;5094901;28;20093;-66
2023/12/30 05:00:39;;;;;;;13.57;3.25;;;;;;;8.97;75.22;101075.06;5095198;28;20023;-66
2023/12/30 05:03:04;;;;;;;14.98;3.30;;;;;;;8.96;75.15;101083.59;5094072;28;20031;-66
2023/12/30 05:05:29;;;;;;;12.30;2.67;;;;;;;8.95;75.60;101079.97;5094565;28;20048;-66
2023/12/30 05:07:55;;;;;;;14.68;2.90;;;;;;;8.92;75.48;101090.69;5087658;28;20040;-67
2023/12/30 05:10:20;;;;;;;11.13;2.70;;;;;;;8.89;75.96;101086.47;5088593;28;20024;-67
2023/12/30 05:12:46;;;;;;;17.15;2.90;;;;;;;8.91;75.96;101089.00;5093126;28;20119;-67
2023/12/30 05:15:14;;;;;;;13.82;2.90;;;;;;;8.94;75.80;101088.53;5093592;28;20024;-66
2023/12/30 05:17:39;;;;;;;13.10;2.60;;;;;;;8.90;76.28;101088.16;5094752;28;20490;-67
2023/12/30 05:20:08;;;;;;;15.35;3.17;;;;;;;8.89;76.02;101096.72;5094408;28;20020;-67
2023/12/30 05:22:33;;;;;;;17.30;3.13;;;;;;;8.83;75.92;101098.47;5093672;28;20081;-66
2023/12/30 05:24:59;;;;;;;18.85;3.45;;;;;;;8.87;76.42;101102.47;5093233;28;20024;-66
2023/12/30 05:27:24;;;;;;;10.77;3.38;;;;;;;8.88;76.11;101109.69;5095960;28;20028;-66
2023/12/30 05:29:49;;;;;;;18.58;3.10;;;;;;;8.85;76.02;101101.88;5085463;28;20024;-66
2023/12/30 05:32:14;;;;;;;18.13;3.05;;;;;;;8.84;76.39;101111.22;5094497;28;20467;-66
2023/12/30 05:34:40;;;;;;;20.55;3.08;;;;;;;8.82;76.19;101102.34;5093948;28;20028;-66
2023/12/30 05:37:05;;;;;;;16.35;3.30;;;;;;;8.81;76.04;101103.41;5091587;28;20040;-66
2023/12/30 05:39:30;;;;;;;17.70;3.17;;;;;;;8.81;76.11;101114.50;5094004;28;20040;-67
2023/12/30 05:41:56;;;;;;;15.60;3.33;;;;;;;8.80;76.32;101110.88;5085839;28;20016;-66
2023/12/30 05:44:21;;;;;;;12.02;2.83;;;;;;;8.81;76.33;101114.50;5087587;28;20023;-66
2023/12/30 05:46:46;;;;;;;15.93;3.28;;;;;;;8.79;76.41;101117.47;5089985;28;20696;-67
2023/12/30 05:49:12;;;;;;;17.25;3.58;;;;;;;8.78;76.18;101118.56;5091568;28;20106;-66
2023/12/30 05:51:41;;;;;;;12.80;2.60;;;;;;;8.77;76.51;101116.03;5084304;28;20480;-66
2023/12/30 05:54:08;;;;;;;15.48;3.38;;;;;;;8.78;76.42;101110.25;5091361;28;20039;-66
2023/12/30 05:56:34;;;;;;;14.23;3.38;;;;;;;8.76;76.37;101120.75;5093660;28;20561;-66
2023/12/30 05:58:59;;;;;;;12.57;2.80;;;;;;;8.76;76.19;101119.88;5092338;28;20028;-66
2023/12/30 06:01:24;;;;;;;12.07;3.17;;;;;;;8.77;75.69;101130.72;5092158;28;20079;-67
2023/12/30 06:03:50;;;;;;;11.93;3.03;;;;;;;8.80;76.41;101126.63;5100593;28;20027;-68
2023/12/30 06:06:15;;;;;;;11.00;2.20;;;;;;;8.77;76.04;101122.41;5094209;28;20044;-67
2023/12/30 06:08:40;;;;;;;12.65;2.70;;;;;;;8.77;76.08;101129.88;5092762;28;20065;-65
2023/12/30 06:11:05;;;;;;;12.20;2.90;;;;;;;8.77;75.63;101133.50;5093582;28;20522;-66
2023/12/30 06:13:33;;;;;;;14.90;3.15;;;;;;;8.78;75.82;101139.88;5092570;28;20031;-65
2023/12/30 06:15:59;;;;;;;11.65;2.80;;;;;;;8.76;76.00;101133.69;5087350;28;20828;-64
2023/12/30 06:18:30;;;;;;;11.77;2.72;;;;;;;8.72;75.60;101138.84;5092741;28;20024;-63
2023/12/30 06:20:56;;;;;;;16.77;3.78;;;;;;;8.73;76.19;101136.97;5093156;28;20227;-66
2023/12/30 06:23:21;;;;;;;14.18;2.83;;;;;;;8.72;75.67;101132.47;5083052;28;20360;-66
2023/12/30 06:25:46;;;;;;;14.38;2.78;;;;;;;8.70;75.67;101143.81;5086359;28;20051;-67
2023/12/30 06:28:11;;;;;;;15.40;2.75;;;;;;;8.67;76.01;101143.41;5086286;28;20021;-67
2023/12/30 06:30:37;;;;;;;12.18;3.10;;;;;;;8.74;75.79;101146.94;5086209;28;20043;-67
2023/12/30 06:33:06;;;;;;;12.60;2.85;;;;;;;8.69;75.99;101157.88;5102203;28;20055;-68
2023/12/30 06:35:32;;;;;;;13.95;2.90;;;;;;;8.66;75.53;101150.88;5113878;28;20027;-68
2023/12/30 06:37:58;;;;;;;13.30;2.97;;;;;;;8.66;75.39;101150.88;5110187;28;20057;-68
2023/12/30 06:40:23;;;;;;;12.80;3.33;;;;;;;8.66;76.06;101145.34;5091104;28;20028;-66
2023/12/30 06:42:48;;;;;;;10.05;2.90;;;;;;;8.66;76.07;101153.66;5093633;28;20031;-67
2023/12/30 06:45:13;;;;;;;8.70;2.45;;;;;;;8.66;75.66;101152.81;5093943;28;20065;-67
2023/12/30 06:47:39;;;;;;;11.13;2.58;;;;;;;8.66;75.98;101153.66;5085714;28;20035;-67
2023/12/30 06:50:07;;;;;;;17.50;3.30;;;;;;;8.60;75.84;101158.19;5091152;28;20894;-66
2023/12/30 06:52:33;;;;;;;12.65;2.63;;;;;;;8.61;75.69;101150.75;5091091;28;20435;-66
2023/12/30 06:54:59;;;;;;;13.82;2.75;;;;;;;8.63;76.25;101144.97;5093369;28;20074;-66
2023/12/30 06:57:25;;;;;;;10.73;2.97;;;;;;;8.64;75.58;101149.41;5084682;28;20472;-66
2023/12/30 06:59:50;;;;;;;14.50;2.88;;;;;;;8.63;76.13;101147.72;5094544;28;20024;-66
2023/12/30 07:02:16;;;;;;;11.05;2.88;;;;;;;8.60;76.09;101140.72;5090402;28;20040;-65
2023/12/30 07:04:41;;;;;;;12.68;2.70;;;;;;;8.60;75.84;101147.09;5091874;28;20111;-65
2023/12/30 07:07:06;;;;;;;12.55;3.17;;;;;;;8.59;75.62;101153.72;5092601;28;20078;-65
2023/12/30 07:09:32;;;;;;;12.32;2.60;;;;;;;8.63;75.94;101143.03;5091239;28;20028;-66
2023/12/30 07:11:57;;;;;;;15.07;2.33;;;;;;;8.59;76.03;101139.88;5103921;28;20035;-65
2023/12/30 07:14:22;;;;;;;14.60;2.97;;;;;;;8.60;76.01;101154.56;5086948;28;20153;-65
2023/12/30 07:16:49;;;;;;;13.05;2.90;;;;;;;8.58;76.19;101154.81;5089780;28;20035;-65
2023/12/30 07:19:14;;;;;;;14.30;2.42;;;;;;;8.56;76.57;101154.19;5088647;28;20103;-65
2023/12/30 07:21:39;;;;;;;18.80;3.00;;;;;;;8.58;76.14;101157.56;5071725;28;20595;-65
2023/12/30 07:24:05;;;;;;;10.32;2.35;;;;;;;8.59;76.18;101161.19;5071988;28;20029;-65
2023/12/30 07:26:32;;;;;;;14.43;2.90;;;;;;;8.60;76.70;101158.19;5072220;28;20075;-65
2023/12/30 07:28:57;;;;;;;11.98;3.03;;;;;;;8.62;76.56;101157.97;5075703;28;20038;-65
2023/12/30 07:31:25;;;;;;;10.50;2.38;;;;;;;8.61;76.47;101161.81;5092260;28;20028;-65
2023/12/30 07:33:51;;;;;;;8.77;2.72;;;;;;;8.62;76.43;101157.97;5092177;28;20486;-65
2023/12/30 07:36:16;;;;;;;13.75;3.08;;;;;;;8.65;76.63;101163.03;5091553;28;20032;-65
2023/12/30 07:38:42;;;;;;;11.50;3.00;;;;;;;8.60;76.47;101163.72;5091996;28;20034;-65
2023/12/30 07:41:07;;;;;;;9.65;2.70;;;;;;;8.60;76.11;101169.25;5092048;28;20394;-65
2023/12/30 07:43:32;;;;;;;14.18;2.85;;;;;;;8.56;76.49;101158.88;5089691;28;20039;-65
2023/12/30 07:45:57;;;;;;;12.80;2.83;;;;;;;8.57;76.31;101175.25;5091937;28;20028;-65
2023/12/30 07:48:23;;;;;;;13.32;2.60;;;;;;;8.59;76.30;101169.50;5085214;28;21156;-65
2023/12/30 07:50:48;;;;;;;14.05;2.78;;;;;;;8.57;76.20;101175.25;5071245;28;20127;-65
2023/12/30 07:53:13;;;;;;;15.73;3.55;;;;;;;8.55;76.52;101174.63;5071939;28;20033;-65
2023/12/30 07:55:39;;;;;;;13.88;2.70;;;;;;;8.57;76.33;101178.03;5071801;28;20039;-65
2023/12/30 07:58:04;;;;;;;14.38;2.95;;;;;;;8.56;76.68;101183.78;5079136;28;20019;-65
2023/12/30 08:00:29;;;;;;;11.40;3.03;;;;;;;8.55;76.03;101184.88;5103851;28;20064;-65
2023/12/30 08:02:55;;;;;;;11.32;2.60;;;;;;;8.51;76.24;101192.78;5106320;28;20056;-65
2023/12/30 08:05:20;;;;;;;17.95;3.30;;;;;;;8.52;76.58;101197.22;5111057;28;20100;-65
2023/12/30 08:07:45;;;;;;;16.50;3.50;;;;;;;8.54;76.58;101200.63;5112109;28;20471;-65
2023/12/30 08:10:11;;;;;;;13.45;3.08;;;;;;;8.52;76.61;101208.28;5092571;28;20028;-65
2023/12/30 08:12:37;;;;;;;13.48;2.75;;;;;;;8.55;76.56;101207.84;5090753;28;20028;-65
2023/12/30 08:15:04;;;;;;;12.65;3.30;;;;;;;8.53;77.07;101207.25;5089874;28;20031;-65
2023/12/30 08:17:30;;;;;;;12.52;3.00;;;;;;;8.50;76.95;101207.69;5089751;28;20054;-65
2023/12/30 08:19:55;;;;;;;13.55;3.25;;;;;;;8.51;77.32;101206.59;5090340;28;20024;-65
2023/12/30 08:22:22;;;;;;;13.88;3.22;;;;;;;8.51;77.66;101203.00;5072285;28;20029;-65
2023/12/30 08:24:50;;;;;;;15.70;3.10;;;;;;;8.52;77.08;101202.75;5090825;28;20038;-65
2023/12/30 08:27:15;;;;;;;12.90;3.22;;;;;;;8.57;76.94;101202.94;5069880;28;20031;-65
2023/12/30 08:29:40;;;;;;;13.38;3.60;;;;;;;8.54;77.62;101210.84;5096625;28;20031;-65
2023/12/30 08:32:06;;;;;;;15.05;3.22;;;;;;;8.55;77.74;101212.53;5090067;28;20485;-65
2023/12/30 08:34:32;;;;;;;12.88;3.10;;;;;;;8.59;77.43;101208.22;5091511;28;20028;-65
2023/12/30 08:36:58;;;;;;;28.48;12.30;;;;;;;8.58;77.81;101204.63;5090569;28;20028;-65
2023/12/30 08:39:23;;;;;;;27.77;14.13;;;;;;;8.62;78.00;101207.75;5083428;28;20098;-65
2023/12/30 08:41:48;;;;;;;98.70;76.50;;;;;;;8.63;77.81;101208.59;5084663;28;20037;-65
2023/12/30 08:44:13;;;;;;;61.67;41.70;;;;;;;8.64;78.47;101207.53;5083194;28;20042;-65
2023/12/30 08:46:39;;;;;;;22.80;10.20;;;;;;;8.65;77.77;101209.25;5088700;28;20024;-65
2023/12/30 08:49:04;;;;;;;13.02;4.03;;;;;;;8.66;77.95;101211.75;5084185;28;20028;-65
2023/12/30 08:51:30;;;;;;;18.27;4.53;;;;;;;8.66;78.00;101202.63;5076074;28;20016;-65
2023/12/30 08:53:56;;;;;;;13.68;4.03;;;;;;;8.65;78.27;101215.63;5094005;28;20115;-65
2023/12/30 08:56:22;;;;;;;14.23;4.38;;;;;;;8.68;78.66;101217.06;5091549;28;20024;-65
2023/12/30 08:58:47;;;;;;;16.27;4.10;;;;;;;8.68;78.55;101211.50;5082084;28;20025;-65
2023/12/30 09:01:12;;;;;;;14.10;3.60;;;;;;;8.71;78.63;101217.44;5074342;28;20062;-65
2023/12/30 09:03:38;;;;;;;17.73;3.53;;;;;;;8.73;78.82;101217.22;5071314;28;20480;-65
2023/12/30 09:06:06;;;;;;;18.90;4.07;;;;;;;8.74;78.13;101214.22;5071108;28;20044;-65
2023/12/30 09:08:31;;;;;;;18.33;4.22;;;;;;;8.75;78.26;101215.88;5070585;28;20437;-65
2023/12/30 09:10:56;;;;;;;13.82;3.03;;;;;;;8.74;78.68;101216.97;5071178;28;20058;-65
2023/12/30 09:13:23;;;;;;;15.15;3.17;;;;;;;8.77;78.87;101222.06;5085446;28;20035;-64
2023/12/30 09:15:50;;;;;;;15.60;3.53;;;;;;;8.77;78.65;101229.50;5089271;28;20464;-65
2023/12/30 09:18:15;;;;;;;12.80;3.20;;;;;;;8.77;79.04;101230.34;5094717;28;20020;-65
2023/12/30 09:20:41;;;;;;;15.20;3.58;;;;;;;8.77;78.92;101241.44;5071029;28;20032;-65
2023/12/30 09:23:07;;;;;;;19.55;4.07;;;;;;;8.79;78.56;101241.19;5069073;28;20517;-63
2023/12/30 09:25:32;;;;;;;15.70;3.53;;;;;;;8.78;78.45;101234.81;5069987;28;20032;-63
2023/12/30 09:27:57;;;;;;;16.95;3.30;;;;;;;8.81;78.82;101245.44;5094580;28;20035;-64
2023/12/30 09:30:25;;;;;;;14.07;3.80;;;;;;;8.82;78.94;101243.50;5083569;28;20476;-64
2023/12/30 09:32:50;;;;;;;12.52;3.50;;;;;;;8.82;79.04;101247.09;5072083;28;20039;-63
2023/12/30 09:35:16;;;;;;;16.77;3.47;;;;;;;8.82;78.94;101254.56;5078989;28;20024;-63
2023/12/30 09:37:41;;;;;;;15.75;4.65;;;;;;;8.84;78.89;101249.63;5108818;28;20468;-65
2023/12/30 09:40:08;;;;;;;15.52;3.92;;;;;;;8.82;78.55;101258.19;5107340;28;20031;-63
2023/12/30 09:42:34;;;;;;;16.52;4.03;;;;;;;8.87;78.62;101249.16;5094009;28;20107;-63
2023/12/30 09:45:01;;;;;;;18.42;4.05;;;;;;;8.87;78.51;101248.34;5093317;28;20040;-62
2023/12/30 09:47:29;;;;;;;17.38;4.20;;;;;;;8.87;78.81;101259.41;5085674;28;20038;-62
2023/12/30 09:49:55;;;;;;;13.57;4.30;;;;;;;8.86;78.86;101253.03;5088705;28;20050;-62
2023/12/30 09:52:21;;;;;;;19.98;5.18;;;;;;;8.89;79.10;101254.50;5074825;28;20052;-62
2023/12/30 09:54:46;;;;;;;14.55;4.30;;;;;;;8.87;79.32;101254.72;5073995;28;20494;-62
2023/12/30 09:57:14;;;;;;;16.55;4.80;;;;;;;8.89;79.35;101249.81;5073478;28;20024;-62
2023/12/30 09:59:40;;;;;;;18.80;5.05;;;;;;;8.83;79.85;101245.19;5073849;28;20039;-62
2023/12/30 10:02:09;;;;;;;16.67;5.53;;;;;;;8.87;79.64;101243.63;5073896;28;20032;-62
2023/12/30 10:04:35;;;;;;;14.95;5.55;;;;;;;8.91;79.46;101249.56;5094217;28;20771;-64
2023/12/30 10:07:04;;;;;;;19.73;5.03;;;;;;;8.93;79.34;101247.41;5095958;28;20123;-64
2023/12/30 10:09:29;;;;;;;16.00;6.45;;;;;;;8.96;79.50;101247.81;5082452;28;20032;-64
2023/12/30 10:11:55;;;;;;;20.38;7.03;;;;;;;8.95;79.87;101245.25;5072770;28;20021;-65
2023/12/30 10:14:23;;;;;;;17.52;6.70;;;;;;;8.99;79.82;101252.00;5073633;28;20488;-62
2023/12/30 10:16:48;;;;;;;23.48;5.90;;;;;;;8.94;79.73;101249.09;5073695;28;20028;-65
2023/12/30 10:19:14;;;;;;;20.15;5.93;;;;;;;8.99;79.52;101258.38;5089764;28;20028;-64
2023/12/30 10:21:40;;;;;;;19.35;5.88;;;;;;;9.00;79.81;101260.09;5093692;28;20024;-59
2023/12/30 10:24:06;;;;;;;19.67;5.47;;;;;;;9.03;79.69;101259.59;5090813;28;20020;-59
2023/12/30 10:26:33;;;;;;;21.98;5.90;;;;;;;9.06;79.89;101261.06;5086726;28;20028;-63
2023/12/30 10:28:59;;;;;;;15.43;5.68;;;;;;;9.09;80.04;101266.16;5083703;28;20030;-64
2023/12/30 10:31:24;;;;;;;18.27;5.90;;;;;;;9.10;80.12;101267.84;5085604;28;20477;-64
2023/12/30 10:33:52;;;;;;;15.50;5.20;;;;;;;9.10;79.98;101273.38;5092074;28;20028;-65
2023/12/30 10:36:18;;;;;;;21.08;5.63;;;;;;;9.12;79.88;101267.59;5092098;28;20020;-64
2023/12/30 10:38:44;;;;;;;16.40;5.93;;;;;;;9.12;80.32;101268.47;5091724;28;20032;-64
2023/12/30 10:41:09;;;;;;;17.35;5.68;;;;;;;9.18;80.26;101274.97;5093164;28;20026;-63
2023/12/30 10:43:34;;;;;;;17.30;5.78;;;;;;;9.19;79.96;101260.88;5092470;27;20467;-64
2023/12/30 10:46:01;;;;;;;16.15;5.65;;;;;;;9.20;80.08;101267.28;5091842;28;20115;-61
2023/12/30 10:48:32;;;;;;;19.60;6.53;;;;;;;9.21;80.54;101267.06;5086289;28;20048;-62
2023/12/30 10:51:01;;;;;;;25.02;7.68;;;;;;;9.22;80.32;101262.34;5093221;28;20059;-62
2023/12/30 10:53:35;;;;;;;19.83;6.13;;;;;;;9.19;80.21;101262.81;5087881;28;20044;-61
2023/12/30 10:56:03;;;;;;;15.98;6.07;;;;;;;9.20;80.22;101259.81;5090042;28;20028;-63
2023/12/30 10:58:36;;;;;;;18.35;6.75;;;;;;;9.22;80.57;101251.28;5092383;28;20040;-62
2023/12/30 11:01:03;;;;;;;19.20;6.28;;;;;;;9.22;80.37;101257.66;5089915;28;20028;-62
2023/12/30 11:03:31;;;;;;;19.50;7.68;;;;;;;9.25;80.10;101246.09;5080822;28;20095;-62
2023/12/30 11:06:16;;;;;;;17.67;7.38;;;;;;;9.26;80.45;101252.50;5090555;28;20048;-62
2023/12/30 11:08:44;;;;;;;22.02;6.03;;;;;;;9.26;80.67;101242.25;5090932;28;20177;-62
2023/12/30 11:11:12;;;;;;;18.95;6.18;;;;;;;9.28;80.50;101242.03;5092422;28;20077;-62
2023/12/30 11:13:47;;;;;;;18.15;5.43;;;;;;;9.27;80.16;101243.94;5091984;28;20024;-63
2023/12/30 11:16:17;;;;;;;19.17;5.13;;;;;;;9.26;80.38;101239.47;5091400;28;20024;-60
2023/12/30 11:18:48;;;;;;;18.10;5.22;;;;;;;9.28;80.36;101236.50;5095939;28;20036;-61
2023/12/30 11:21:32;;;;;;;15.70;5.25;;;;;;;9.34;80.88;101246.63;5081905;28;20105;-64